sensor_id;sensor_type;location;lat;lon;timestamp;pressure;altitude;pressure_sealevel;temperature;humidity
56558;BME280;43358;50.356;12.456;2023-01-20T00:00:42;94751;;;-1.8;98.8
56558;BME280;43358;50.356;12.456;2023-01-20T00:01:44;94752;;;-1.8;98.8
56558;BME280;43358;50.356;12.456;2023-01-20T00:02:46;94752;;;-1.7;98.8
56558;BME280;43358;50.356;12.456;2023-01-20T00:03:48;94754;;;-1.7;98.8
56558;BME280;43358;50.356;12.456;2023-01-20T00:04:50;94752;;;-1.7;98.8
56558;BME280;43358;50.356;12.456;2023-01-20T00:05:52;94754;;;-1.7;98.8
56558;BME280;43358;50.356;12.456;2023-01-20T00:06:54;94751;;;-1.6;98.8
56558;BME280;43358;50.356;12.456;2023-01-20T00:07:56;94752;;;-1.6;98.8
56558;BME280;43358;50.356;12.456;2023-01-20T00:08:59;94753;;;-1.5;98.3
56558;BME280;43358;50.356;12.456;2023-01-20T00:10:00;94752;;;-1.5;98
56558;BME280;43358;50.356;12.456;2023-01-20T00:11:03;94750;;;-1.5;98
56558;BME280;43358;50.356;12.456;2023-01-20T00:12:04;94753;;;-1.5;97.9
56558;BME280;43358;50.356;12.456;2023-01-20T00:13:06;94753;;;-1.5;98
56558;BME280;43358;50.356;12.456;2023-01-20T00:14:09;94753;;;-1.4;98.1
56558;BME280;43358;50.356;12.456;2023-01-20T00:15:10;94755;;;-1.4;98
56558;BME280;43358;50.356;12.456;2023-01-20T00:16:16;94753;;;-1.4;97.8
56558;BME280;43358;50.356;12.456;2023-01-20T00:17:19;94753;;;-1.4;97.9
56558;BME280;43358;50.356;12.456;2023-01-20T00:18:21;94751;;;-1.4;97.7
56558;BME280;43358;50.356;12.456;2023-01-20T00:21:16;94755;;;-1.5;97.6
56558;BME280;43358;50.356;12.456;2023-01-20T00:21:48;94754;;;-1.6;98.1
56558;BME280;43358;50.356;12.456;2023-01-20T00:22:58;94757;;;-1.6;98.6
56558;BME280;43358;50.356;12.456;2023-01-20T00:23:58;94757;;;-1.6;98.7
56558;BME280;43358;50.356;12.456;2023-01-20T00:24:58;94757;;;-1.6;98.8
56558;BME280;43358;50.356;12.456;2023-01-20T00:25:58;94759;;;-1.5;98.8
56558;BME280;43358;50.356;12.456;2023-01-20T00:26:59;94760;;;-1.6;98.8
56558;BME280;43358;50.356;12.456;2023-01-20T00:28:02;94764;;;-1.6;98.8
56558;BME280;43358;50.356;12.456;2023-01-20T00:29:03;94765;;;-1.6;98.8
56558;BME280;43358;50.356;12.456;2023-01-20T00:30:06;94763;;;-1.6;98.8
56558;BME280;43358;50.356;12.456;2023-01-20T00:31:09;94766;;;-1.7;98.8
56558;BME280;43358;50.356;12.456;2023-01-20T00:32:10;94771;;;-1.7;98.8
56558;BME280;43358;50.356;12.456;2023-01-20T00:33:12;94773;;;-1.8;98.8
56558;BME280;43358;50.356;12.456;2023-01-20T00:34:15;94777;;;-1.8;98.8
56558;BME280;43358;50.356;12.456;2023-01-20T00:35:17;94778;;;-1.8;98.8
56558;BME280;43358;50.356;12.456;2023-01-20T00:37:26;94780;;;-1.8;98.8
56558;BME280;43358;50.356;12.456;2023-01-20T00:42:58;94786;;;-1.8;98.8
56558;BME280;43358;50.356;12.456;2023-01-20T00:43:58;94790;;;-1.8;98.8
56558;BME280;43358;50.356;12.456;2023-01-20T00:44:58;94790;;;-1.7;98.8
56558;BME280;43358;50.356;12.456;2023-01-20T00:45:58;94793;;;-1.7;98.8
56558;BME280;43358;50.356;12.456;2023-01-20T00:46:58;94792;;;-1.6;98.8
56558;BME280;43358;50.356;12.456;2023-01-20T00:47:58;94794;;;-1.7;98.8
56558;BME280;43358;50.356;12.456;2023-01-20T00:49:04;94794;;;-1.7;98.8
56558;BME280;43358;50.356;12.456;2023-01-20T00:49:58;94796;;;-1.7;98.8
56558;BME280;43358;50.356;12.456;2023-01-20T00:50:58;94796;;;-1.8;98.8
56558;BME280;43358;50.356;12.456;2023-01-20T00:51:58;94795;;;-1.8;98.8
56558;BME280;43358;50.356;12.456;2023-01-20T00:52:58;94797;;;-1.8;98.8
56558;BME280;43358;50.356;12.456;2023-01-20T00:53:59;94797;;;-1.8;98.8
56558;BME280;43358;50.356;12.456;2023-01-20T00:55:01;94801;;;-1.8;98.8
56558;BME280;43358;50.356;12.456;2023-01-20T00:57:06;94806;;;-1.9;98.8
56558;BME280;43358;50.356;12.456;2023-01-20T00:58:08;94801;;;-1.9;98.8
56558;BME280;43358;50.356;12.456;2023-01-20T00:59:10;94807;;;-1.9;98.8
56558;BME280;43358;50.356;12.456;2023-01-20T01:00:12;94808;;;-1.9;98.8
56558;BME280;43358;50.356;12.456;2023-01-20T01:07:18;94815;;;-2;98.8
56558;BME280;43358;50.356;12.456;2023-01-20T01:07:58;94817;;;-2;98.8
56558;BME280;43358;50.356;12.456;2023-01-20T01:08:58;94817;;;-2;98.8
56558;BME280;43358;50.356;12.456;2023-01-20T01:09:58;94818;;;-2;98.8
56558;BME280;43358;50.356;12.456;2023-01-20T01:10:58;94820;;;-1.9;98.8
56558;BME280;43358;50.356;12.456;2023-01-20T01:11:58;94820;;;-1.8;98.8
56558;BME280;43358;50.356;12.456;2023-01-20T01:12:58;94822;;;-1.7;98.8
56558;BME280;43358;50.356;12.456;2023-01-20T01:13:58;94822;;;-1.7;98.8
56558;BME280;43358;50.356;12.456;2023-01-20T01:14:58;94826;;;-1.7;98.8
56558;BME280;43358;50.356;12.456;2023-01-20T01:15:58;94824;;;-1.7;98.8
56558;BME280;43358;50.356;12.456;2023-01-20T01:16:58;94827;;;-1.7;98.8
56558;BME280;43358;50.356;12.456;2023-01-20T01:17:58;94824;;;-1.7;98.8
56558;BME280;43358;50.356;12.456;2023-01-20T01:18:58;94826;;;-1.7;98.8
56558;BME280;43358;50.356;12.456;2023-01-20T01:19:59;94824;;;-1.8;98.8
56558;BME280;43358;50.356;12.456;2023-01-20T01:21:04;94827;;;-1.8;98.8
56558;BME280;43358;50.356;12.456;2023-01-20T01:22:03;94830;;;-1.8;98.8
56558;BME280;43358;50.356;12.456;2023-01-20T01:23:05;94830;;;-1.9;98.8
56558;BME280;43358;50.356;12.456;2023-01-20T01:24:07;94833;;;-1.9;98.8
56558;BME280;43358;50.356;12.456;2023-01-20T01:25:09;94830;;;-1.9;98.8
56558;BME280;43358;50.356;12.456;2023-01-20T01:26:11;94835;;;-1.9;98.8
56558;BME280;43358;50.356;12.456;2023-01-20T01:27:13;94832;;;-1.9;98.8
56558;BME280;43358;50.356;12.456;2023-01-20T01:28:15;94836;;;-1.9;98.8
56558;BME280;43358;50.356;12.456;2023-01-20T01:29:17;94835;;;-1.9;98.8
56558;BME280;43358;50.356;12.456;2023-01-20T01:30:19;94836;;;-2;98.8
56558;BME280;43358;50.356;12.456;2023-01-20T01:31:21;94837;;;-1.9;98.8
56558;BME280;43358;50.356;12.456;2023-01-20T01:32:23;94834;;;-1.9;98.8
56558;BME280;43358;50.356;12.456;2023-01-20T01:33:25;94837;;;-2;98.8
56558;BME280;43358;50.356;12.456;2023-01-20T01:34:27;94838;;;-2;98.8
56558;BME280;43358;50.356;12.456;2023-01-20T01:35:29;94840;;;-2;98.8
56558;BME280;43358;50.356;12.456;2023-01-20T01:36:32;94839;;;-2;98.8
56558;BME280;43358;50.356;12.456;2023-01-20T01:37:34;94837;;;-2;98.8
56558;BME280;43358;50.356;12.456;2023-01-20T01:38:36;94844;;;-2;98.8
56558;BME280;43358;50.356;12.456;2023-01-20T01:39:38;94843;;;-2;98.8
56558;BME280;43358;50.356;12.456;2023-01-20T01:40:40;94844;;;-2;98.8
56558;BME280;43358;50.356;12.456;2023-01-20T01:41:42;94845;;;-2;98.8
56558;BME280;43358;50.356;12.456;2023-01-20T01:42:44;94845;;;-2;98.8
56558;BME280;43358;50.356;12.456;2023-01-20T01:43:58;94847;;;-2;98.8
56558;BME280;43358;50.356;12.456;2023-01-20T01:45:21;94845;;;-2;98.8
56558;BME280;43358;50.356;12.456;2023-01-20T01:45:50;94846;;;-2;98.8
56558;BME280;43358;50.356;12.456;2023-01-20T01:46:52;94847;;;-2;98.8
56558;BME280;43358;50.356;12.456;2023-01-20T01:47:56;94848;;;-2;98.8
56558;BME280;43358;50.356;12.456;2023-01-20T01:48:56;94852;;;-2;98.8
56558;BME280;43358;50.356;12.456;2023-01-20T01:49:58;94848;;;-2;98.8
56558;BME280;43358;50.356;12.456;2023-01-20T01:51:01;94852;;;-2;98.8
56558;BME280;43358;50.356;12.456;2023-01-20T01:52:16;94851;;;-2;98.8
56558;BME280;43358;50.356;12.456;2023-01-20T01:53:04;94855;;;-2;98.8
56558;BME280;43358;50.356;12.456;2023-01-20T01:54:07;94854;;;-2;98.8
56558;BME280;43358;50.356;12.456;2023-01-20T01:55:23;94855;;;-2;98.8
56558;BME280;43358;50.356;12.456;2023-01-20T01:56:10;94854;;;-2;98.8
56558;BME280;43358;50.356;12.456;2023-01-20T01:57:12;94854;;;-2;98.8
56558;BME280;43358;50.356;12.456;2023-01-20T01:58:15;94855;;;-2;98.8
56558;BME280;43358;50.356;12.456;2023-01-20T01:59:17;94854;;;-2;98.8
56558;BME280;43358;50.356;12.456;2023-01-20T02:00:19;94855;;;-2;98.8
56558;BME280;43358;50.356;12.456;2023-01-20T02:01:21;94859;;;-2;98.8
56558;BME280;43358;50.356;12.456;2023-01-20T02:02:23;94859;;;-2;98.8
56558;BME280;43358;50.356;12.456;2023-01-20T02:03:25;94853;;;-2;98.8
56558;BME280;43358;50.356;12.456;2023-01-20T02:04:40;94856;;;-2;98.8
56558;BME280;43358;50.356;12.456;2023-01-20T02:05:29;94858;;;-2;98.8
56558;BME280;43358;50.356;12.456;2023-01-20T02:06:33;94857;;;-2;98.8
56558;BME280;43358;50.356;12.456;2023-01-20T02:07:34;94856;;;-2;98.8
56558;BME280;43358;50.356;12.456;2023-01-20T02:08:36;94859;;;-2;98.8
56558;BME280;43358;50.356;12.456;2023-01-20T02:09:38;94859;;;-2;98.8
56558;BME280;43358;50.356;12.456;2023-01-20T02:10:40;94860;;;-2;98.8
56558;BME280;43358;50.356;12.456;2023-01-20T02:11:42;94862;;;-2;98.8
56558;BME280;43358;50.356;12.456;2023-01-20T02:12:45;94862;;;-2;98.8
56558;BME280;43358;50.356;12.456;2023-01-20T02:13:46;94865;;;-2;98.8
56558;BME280;43358;50.356;12.456;2023-01-20T02:14:49;94862;;;-2;98.8
56558;BME280;43358;50.356;12.456;2023-01-20T02:15:51;94864;;;-2;98.8
56558;BME280;43358;50.356;12.456;2023-01-20T02:16:56;94866;;;-2;98.8
56558;BME280;43358;50.356;12.456;2023-01-20T02:21:08;94869;;;-2;98.8
56558;BME280;43358;50.356;12.456;2023-01-20T02:24:15;94874;;;-1.9;98.8
56558;BME280;43358;50.356;12.456;2023-01-20T02:25:22;94875;;;-1.8;98.8
56558;BME280;43358;50.356;12.456;2023-01-20T02:26:15;94876;;;-1.8;98.8
56558;BME280;43358;50.356;12.456;2023-01-20T02:27:14;94875;;;-1.8;98.8
56558;BME280;43358;50.356;12.456;2023-01-20T02:28:20;94877;;;-1.8;98.8
56558;BME280;43358;50.356;12.456;2023-01-20T02:30:30;94880;;;-1.8;98.8
56558;BME280;43358;50.356;12.456;2023-01-20T02:31:25;94882;;;-1.8;98.8
56558;BME280;43358;50.356;12.456;2023-01-20T02:32:25;94883;;;-1.8;98.8
56558;BME280;43358;50.356;12.456;2023-01-20T02:33:27;94884;;;-1.8;98.8
56558;BME280;43358;50.356;12.456;2023-01-20T02:34:29;94886;;;-1.8;98.8
56558;BME280;43358;50.356;12.456;2023-01-20T02:35:34;94886;;;-1.8;98.8
56558;BME280;43358;50.356;12.456;2023-01-20T02:36:37;94888;;;-1.8;98.8
56558;BME280;43358;50.356;12.456;2023-01-20T02:37:39;94892;;;-1.8;98.8
56558;BME280;43358;50.356;12.456;2023-01-20T02:38:40;94893;;;-1.8;98.8
56558;BME280;43358;50.356;12.456;2023-01-20T02:39:41;94894;;;-1.8;98.8
56558;BME280;43358;50.356;12.456;2023-01-20T02:40:47;94894;;;-1.7;98.8
56558;BME280;43358;50.356;12.456;2023-01-20T02:41:48;94894;;;-1.7;98.8
56558;BME280;43358;50.356;12.456;2023-01-20T02:42:48;94893;;;-1.7;98.8
56558;BME280;43358;50.356;12.456;2023-01-20T02:43:51;94896;;;-1.7;98.8
56558;BME280;43358;50.356;12.456;2023-01-20T02:44:52;94895;;;-1.7;98.8
56558;BME280;43358;50.356;12.456;2023-01-20T02:45:55;94894;;;-1.7;98.8
56558;BME280;43358;50.356;12.456;2023-01-20T02:46:57;94891;;;-1.7;98.8
56558;BME280;43358;50.356;12.456;2023-01-20T02:47:59;94891;;;-1.7;98.8
56558;BME280;43358;50.356;12.456;2023-01-20T02:49:00;94894;;;-1.7;98.8
56558;BME280;43358;50.356;12.456;2023-01-20T02:50:03;94893;;;-1.7;98.8
56558;BME280;43358;50.356;12.456;2023-01-20T02:51:04;94892;;;-1.7;98.8
56558;BME280;43358;50.356;12.456;2023-01-20T02:52:08;94891;;;-1.7;98.8
56558;BME280;43358;50.356;12.456;2023-01-20T02:53:09;94892;;;-1.8;98.8
56558;BME280;43358;50.356;12.456;2023-01-20T02:54:11;94891;;;-1.7;98.8
56558;BME280;43358;50.356;12.456;2023-01-20T02:55:14;94889;;;-1.8;98.8
56558;BME280;43358;50.356;12.456;2023-01-20T02:56:15;94892;;;-1.8;98.8
56558;BME280;43358;50.356;12.456;2023-01-20T02:57:17;94893;;;-1.8;98.8
56558;BME280;43358;50.356;12.456;2023-01-20T02:58:20;94893;;;-1.8;98.8
56558;BME280;43358;50.356;12.456;2023-01-20T02:59:21;94894;;;-1.8;98.8
56558;BME280;43358;50.356;12.456;2023-01-20T03:00:24;94897;;;-1.8;98.8
56558;BME280;43358;50.356;12.456;2023-01-20T03:01:26;94895;;;-1.8;98.8
56558;BME280;43358;50.356;12.456;2023-01-20T03:02:27;94898;;;-1.8;98.8
56558;BME280;43358;50.356;12.456;2023-01-20T03:03:29;94897;;;-1.9;98.8
56558;BME280;43358;50.356;12.456;2023-01-20T03:04:33;94895;;;-1.8;98.8
56558;BME280;43358;50.356;12.456;2023-01-20T03:05:36;94895;;;-1.9;98.8
56558;BME280;43358;50.356;12.456;2023-01-20T03:06:38;94898;;;-1.9;98.8
56558;BME280;43358;50.356;12.456;2023-01-20T03:07:39;94895;;;-1.9;98.8
56558;BME280;43358;50.356;12.456;2023-01-20T03:08:41;94897;;;-1.9;98.8
56558;BME280;43358;50.356;12.456;2023-01-20T03:09:43;94896;;;-1.9;98.8
56558;BME280;43358;50.356;12.456;2023-01-20T03:10:45;94898;;;-1.9;98.8
56558;BME280;43358;50.356;12.456;2023-01-20T03:11:49;94900;;;-1.9;98.8
56558;BME280;43358;50.356;12.456;2023-01-20T03:12:49;94901;;;-1.9;98.8
56558;BME280;43358;50.356;12.456;2023-01-20T03:13:52;94902;;;-1.9;98.8
56558;BME280;43358;50.356;12.456;2023-01-20T03:14:53;94900;;;-1.9;98.8
56558;BME280;43358;50.356;12.456;2023-01-20T03:15:55;94903;;;-1.9;98.8
56558;BME280;43358;50.356;12.456;2023-01-20T03:16:57;94902;;;-1.9;98.8
56558;BME280;43358;50.356;12.456;2023-01-20T03:17:59;94901;;;-1.9;98.8
56558;BME280;43358;50.356;12.456;2023-01-20T03:19:01;94902;;;-1.9;98.8
56558;BME280;43358;50.356;12.456;2023-01-20T03:20:03;94902;;;-1.9;98.8
56558;BME280;43358;50.356;12.456;2023-01-20T03:21:06;94903;;;-1.8;98.8
56558;BME280;43358;50.356;12.456;2023-01-20T03:22:08;94903;;;-1.8;98.8
56558;BME280;43358;50.356;12.456;2023-01-20T03:23:10;94903;;;-1.8;98.8
56558;BME280;43358;50.356;12.456;2023-01-20T03:24:12;94901;;;-1.8;98.8
56558;BME280;43358;50.356;12.456;2023-01-20T03:25:14;94902;;;-1.8;98.8
56558;BME280;43358;50.356;12.456;2023-01-20T03:26:17;94901;;;-1.7;98.8
56558;BME280;43358;50.356;12.456;2023-01-20T03:27:19;94903;;;-1.7;98.8
56558;BME280;43358;50.356;12.456;2023-01-20T03:28:21;94906;;;-1.7;98.8
56558;BME280;43358;50.356;12.456;2023-01-20T03:29:23;94904;;;-1.7;98.8
56558;BME280;43358;50.356;12.456;2023-01-20T03:30:26;94907;;;-1.6;98.8
56558;BME280;43358;50.356;12.456;2023-01-20T03:31:28;94904;;;-1.6;98.8
56558;BME280;43358;50.356;12.456;2023-01-20T03:32:30;94906;;;-1.6;98.8
56558;BME280;43358;50.356;12.456;2023-01-20T03:33:32;94905;;;-1.6;98.8
56558;BME280;43358;50.356;12.456;2023-01-20T03:34:35;94905;;;-1.6;98.8
56558;BME280;43358;50.356;12.456;2023-01-20T03:35:37;94903;;;-1.6;98.8
56558;BME280;43358;50.356;12.456;2023-01-20T03:36:39;94901;;;-1.5;98.8
56558;BME280;43358;50.356;12.456;2023-01-20T03:37:41;94903;;;-1.5;98.8
56558;BME280;43358;50.356;12.456;2023-01-20T03:38:43;94904;;;-1.5;98.8
56558;BME280;43358;50.356;12.456;2023-01-20T03:39:45;94904;;;-1.5;98.8
56558;BME280;43358;50.356;12.456;2023-01-20T03:40:47;94905;;;-1.5;98.8
56558;BME280;43358;50.356;12.456;2023-01-20T03:41:51;94903;;;-1.4;98.8
56558;BME280;43358;50.356;12.456;2023-01-20T03:42:51;94903;;;-1.4;98.8
56558;BME280;43358;50.356;12.456;2023-01-20T03:43:54;94904;;;-1.5;98.8
56558;BME280;43358;50.356;12.456;2023-01-20T03:44:58;94906;;;-1.4;98.8
56558;BME280;43358;50.356;12.456;2023-01-20T03:45:58;94907;;;-1.4;98.8
56558;BME280;43358;50.356;12.456;2023-01-20T03:47:00;94907;;;-1.4;98.8
56558;BME280;43358;50.356;12.456;2023-01-20T03:48:03;94905;;;-1.4;98.8
56558;BME280;43358;50.356;12.456;2023-01-20T03:49:05;94903;;;-1.4;98.8
56558;BME280;43358;50.356;12.456;2023-01-20T03:50:05;94900;;;-1.4;98.8
56558;BME280;43358;50.356;12.456;2023-01-20T03:51:08;94903;;;-1.4;98.8
56558;BME280;43358;50.356;12.456;2023-01-20T03:52:10;94905;;;-1.5;98.8
56558;BME280;43358;50.356;12.456;2023-01-20T03:53:13;94901;;;-1.5;98.8
56558;BME280;43358;50.356;12.456;2023-01-20T03:54:14;94901;;;-1.5;98.8
56558;BME280;43358;50.356;12.456;2023-01-20T03:55:15;94903;;;-1.5;98.8
56558;BME280;43358;50.356;12.456;2023-01-20T03:56:18;94905;;;-1.5;98.8
56558;BME280;43358;50.356;12.456;2023-01-20T04:00:58;94903;;;-1.6;98.8
56558;BME280;43358;50.356;12.456;2023-01-20T04:01:59;94906;;;-1.6;98.8
56558;BME280;43358;50.356;12.456;2023-01-20T04:02:58;94905;;;-1.6;98.8
56558;BME280;43358;50.356;12.456;2023-01-20T04:03:58;94910;;;-1.7;98.8
56558;BME280;43358;50.356;12.456;2023-01-20T04:04:58;94911;;;-1.7;98.8
56558;BME280;43358;50.356;12.456;2023-01-20T04:05:58;94910;;;-1.7;98.8
56558;BME280;43358;50.356;12.456;2023-01-20T04:06:58;94912;;;-1.7;98.8
56558;BME280;43358;50.356;12.456;2023-01-20T04:07:59;94915;;;-1.7;98.8
56558;BME280;43358;50.356;12.456;2023-01-20T04:08:58;94917;;;-1.7;98.8
56558;BME280;43358;50.356;12.456;2023-01-20T04:09:59;94918;;;-1.7;98.8
56558;BME280;43358;50.356;12.456;2023-01-20T04:10:58;94918;;;-1.7;98.8
56558;BME280;43358;50.356;12.456;2023-01-20T04:11:58;94920;;;-1.7;98.8
56558;BME280;43358;50.356;12.456;2023-01-20T04:12:58;94925;;;-1.7;98.8
56558;BME280;43358;50.356;12.456;2023-01-20T04:13:58;94924;;;-1.7;98.8
56558;BME280;43358;50.356;12.456;2023-01-20T04:14:59;94928;;;-1.7;98.8
56558;BME280;43358;50.356;12.456;2023-01-20T04:15:58;94927;;;-1.7;98.8
56558;BME280;43358;50.356;12.456;2023-01-20T04:16:59;94932;;;-1.7;98.8
56558;BME280;43358;50.356;12.456;2023-01-20T04:18:09;94934;;;-1.6;98.8
56558;BME280;43358;50.356;12.456;2023-01-20T04:19:04;94934;;;-1.6;98.8
56558;BME280;43358;50.356;12.456;2023-01-20T04:20:07;94932;;;-1.6;98.8
56558;BME280;43358;50.356;12.456;2023-01-20T04:21:09;94931;;;-1.6;98.8
56558;BME280;43358;50.356;12.456;2023-01-20T04:22:11;94932;;;-1.6;98.8
56558;BME280;43358;50.356;12.456;2023-01-20T04:23:13;94931;;;-1.6;98.8
56558;BME280;43358;50.356;12.456;2023-01-20T04:24:15;94929;;;-1.6;98.8
56558;BME280;43358;50.356;12.456;2023-01-20T04:25:19;94933;;;-1.6;98.8
56558;BME280;43358;50.356;12.456;2023-01-20T04:26:19;94932;;;-1.6;98.8
56558;BME280;43358;50.356;12.456;2023-01-20T04:27:21;94930;;;-1.5;98.8
56558;BME280;43358;50.356;12.456;2023-01-20T04:28:24;94931;;;-1.4;98.8
56558;BME280;43358;50.356;12.456;2023-01-20T04:29:26;94930;;;-1.3;98.8
56558;BME280;43358;50.356;12.456;2023-01-20T04:30:29;94931;;;-1.3;98.8
56558;BME280;43358;50.356;12.456;2023-01-20T04:31:32;94932;;;-1.3;98.8
56558;BME280;43358;50.356;12.456;2023-01-20T04:33:37;94931;;;-1.3;98.8
56558;BME280;43358;50.356;12.456;2023-01-20T04:34:39;94933;;;-1.3;98.8
56558;BME280;43358;50.356;12.456;2023-01-20T04:35:41;94934;;;-1.3;98.8
56558;BME280;43358;50.356;12.456;2023-01-20T04:36:43;94935;;;-1.4;98.8
56558;BME280;43358;50.356;12.456;2023-01-20T04:37:45;94940;;;-1.4;98.8
56558;BME280;43358;50.356;12.456;2023-01-20T04:38:47;94941;;;-1.4;98.8
56558;BME280;43358;50.356;12.456;2023-01-20T04:39:49;94944;;;-1.4;98.8
56558;BME280;43358;50.356;12.456;2023-01-20T04:40:51;94947;;;-1.4;98.8
56558;BME280;43358;50.356;12.456;2023-01-20T04:41:53;94947;;;-1.4;98.8
56558;BME280;43358;50.356;12.456;2023-01-20T04:42:55;94948;;;-1.3;98.8
56558;BME280;43358;50.356;12.456;2023-01-20T04:43:57;94952;;;-1.3;98.8
56558;BME280;43358;50.356;12.456;2023-01-20T04:45:00;94953;;;-1.3;98.8
56558;BME280;43358;50.356;12.456;2023-01-20T04:46:02;94951;;;-1.3;98.8
56558;BME280;43358;50.356;12.456;2023-01-20T04:47:04;94954;;;-1.3;98.8
56558;BME280;43358;50.356;12.456;2023-01-20T04:48:06;94954;;;-1.2;98.8
56558;BME280;43358;50.356;12.456;2023-01-20T04:49:08;94952;;;-1.2;98.8
56558;BME280;43358;50.356;12.456;2023-01-20T04:50:10;94953;;;-1.2;98.8
56558;BME280;43358;50.356;12.456;2023-01-20T04:51:12;94950;;;-1.2;98.8
56558;BME280;43358;50.356;12.456;2023-01-20T04:52:14;94952;;;-1.2;98.8
56558;BME280;43358;50.356;12.456;2023-01-20T04:53:16;94953;;;-1.2;98.8
56558;BME280;43358;50.356;12.456;2023-01-20T04:54:19;94953;;;-1.2;98.8
56558;BME280;43358;50.356;12.456;2023-01-20T04:55:21;94953;;;-1.2;98.8
56558;BME280;43358;50.356;12.456;2023-01-20T04:56:23;94955;;;-1.2;98.8
56558;BME280;43358;50.356;12.456;2023-01-20T04:57:26;94954;;;-1.2;98.8
56558;BME280;43358;50.356;12.456;2023-01-20T04:58:28;94957;;;-1.2;98.8
56558;BME280;43358;50.356;12.456;2023-01-20T04:59:30;94958;;;-1.2;98.8
56558;BME280;43358;50.356;12.456;2023-01-20T05:00:32;94961;;;-1.2;98.8
56558;BME280;43358;50.356;12.456;2023-01-20T05:01:36;94963;;;-1.3;98.8
56558;BME280;43358;50.356;12.456;2023-01-20T05:02:38;94963;;;-1.2;98.8
56558;BME280;43358;50.356;12.456;2023-01-20T05:03:40;94969;;;-1.3;98.8
56558;BME280;43358;50.356;12.456;2023-01-20T05:04:42;94970;;;-1.3;98.8
56558;BME280;43358;50.356;12.456;2023-01-20T05:05:50;94970;;;-1.3;98.8
56558;BME280;43358;50.356;12.456;2023-01-20T05:06:46;94968;;;-1.2;98.8
56558;BME280;43358;50.356;12.456;2023-01-20T05:07:50;94970;;;-1.3;98.8
56558;BME280;43358;50.356;12.456;2023-01-20T05:08:50;94969;;;-1.3;98.8
56558;BME280;43358;50.356;12.456;2023-01-20T05:09:52;94970;;;-1.3;98.8
56558;BME280;43358;50.356;12.456;2023-01-20T05:10:54;94971;;;-1.3;98.8
56558;BME280;43358;50.356;12.456;2023-01-20T05:11:57;94969;;;-1.4;98.8
56558;BME280;43358;50.356;12.456;2023-01-20T05:12:59;94971;;;-1.4;98.8
56558;BME280;43358;50.356;12.456;2023-01-20T05:14:01;94972;;;-1.4;98.8
56558;BME280;43358;50.356;12.456;2023-01-20T05:15:03;94972;;;-1.3;98.8
56558;BME280;43358;50.356;12.456;2023-01-20T05:16:05;94974;;;-1.3;98.8
56558;BME280;43358;50.356;12.456;2023-01-20T05:17:07;94976;;;-1.3;98.8
56558;BME280;43358;50.356;12.456;2023-01-20T05:18:09;94976;;;-1.3;98.8
56558;BME280;43358;50.356;12.456;2023-01-20T05:19:11;94978;;;-1.3;98.8
56558;BME280;43358;50.356;12.456;2023-01-20T05:20:14;94980;;;-1.3;98.8
56558;BME280;43358;50.356;12.456;2023-01-20T05:21:16;94981;;;-1.3;98.8
56558;BME280;43358;50.356;12.456;2023-01-20T05:22:19;94989;;;-1.4;98.8
56558;BME280;43358;50.356;12.456;2023-01-20T05:23:21;94990;;;-1.4;98.8
56558;BME280;43358;50.356;12.456;2023-01-20T05:24:23;94993;;;-1.4;98.8
56558;BME280;43358;50.356;12.456;2023-01-20T05:25:25;94993;;;-1.4;98.8
56558;BME280;43358;50.356;12.456;2023-01-20T05:26:27;94993;;;-1.4;98.8
56558;BME280;43358;50.356;12.456;2023-01-20T05:27:29;94992;;;-1.4;98.8
56558;BME280;43358;50.356;12.456;2023-01-20T05:28:32;94995;;;-1.4;98.8
56558;BME280;43358;50.356;12.456;2023-01-20T05:29:35;94997;;;-1.5;98.8
56558;BME280;43358;50.356;12.456;2023-01-20T05:30:37;95003;;;-1.5;98.8
56558;BME280;43358;50.356;12.456;2023-01-20T05:31:39;95000;;;-1.5;98.8
56558;BME280;43358;50.356;12.456;2023-01-20T05:32:41;95002;;;-1.4;98.8
56558;BME280;43358;50.356;12.456;2023-01-20T05:33:43;95003;;;-1.4;98.8
56558;BME280;43358;50.356;12.456;2023-01-20T05:34:46;95003;;;-1.4;98.8
56558;BME280;43358;50.356;12.456;2023-01-20T05:35:48;95007;;;-1.4;98.8
56558;BME280;43358;50.356;12.456;2023-01-20T05:36:50;95007;;;-1.3;98.8
56558;BME280;43358;50.356;12.456;2023-01-20T05:37:52;95006;;;-1.3;98.8
56558;BME280;43358;50.356;12.456;2023-01-20T05:38:54;95007;;;-1.2;98.8
56558;BME280;43358;50.356;12.456;2023-01-20T05:39:56;95007;;;-1.3;98.8
56558;BME280;43358;50.356;12.456;2023-01-20T05:40:58;95007;;;-1.3;98.8
56558;BME280;43358;50.356;12.456;2023-01-20T05:42:00;95009;;;-1.3;98.8
56558;BME280;43358;50.356;12.456;2023-01-20T05:43:02;95013;;;-1.3;98.8
56558;BME280;43358;50.356;12.456;2023-01-20T05:44:04;95012;;;-1.3;98.8
56558;BME280;43358;50.356;12.456;2023-01-20T05:45:06;95013;;;-1.3;98.8
56558;BME280;43358;50.356;12.456;2023-01-20T05:46:08;95014;;;-1.3;98.8
56558;BME280;43358;50.356;12.456;2023-01-20T05:47:10;95013;;;-1.3;98.8
56558;BME280;43358;50.356;12.456;2023-01-20T05:48:12;95012;;;-1.3;98.8
56558;BME280;43358;50.356;12.456;2023-01-20T05:49:14;95016;;;-1.2;98.8
56558;BME280;43358;50.356;12.456;2023-01-20T05:50:16;95014;;;-1.2;98.8
56558;BME280;43358;50.356;12.456;2023-01-20T05:51:18;95014;;;-1.2;98.8
56558;BME280;43358;50.356;12.456;2023-01-20T05:52:21;95016;;;-1.1;98.8
56558;BME280;43358;50.356;12.456;2023-01-20T05:53:23;95013;;;-1.1;98.7
56558;BME280;43358;50.356;12.456;2023-01-20T05:54:25;95015;;;-1.1;98.5
56558;BME280;43358;50.356;12.456;2023-01-20T05:55:27;95018;;;-1.1;98.3
56558;BME280;43358;50.356;12.456;2023-01-20T05:56:29;95016;;;-1.2;98.4
56558;BME280;43358;50.356;12.456;2023-01-20T05:57:32;95020;;;-1.2;98.6
56558;BME280;43358;50.356;12.456;2023-01-20T06:05:31;95025;;;-1.1;98.5
56558;BME280;43358;50.356;12.456;2023-01-20T06:06:33;95025;;;-1.1;98.4
56558;BME280;43358;50.356;12.456;2023-01-20T06:07:35;95023;;;-1.2;98.6
56558;BME280;43358;50.356;12.456;2023-01-20T06:08:37;95024;;;-1.2;98.8
56558;BME280;43358;50.356;12.456;2023-01-20T06:09:39;95026;;;-1.2;98.8
56558;BME280;43358;50.356;12.456;2023-01-20T06:10:41;95026;;;-1.3;98.8
56558;BME280;43358;50.356;12.456;2023-01-20T06:11:43;95028;;;-1.3;98.8
56558;BME280;43358;50.356;12.456;2023-01-20T06:12:49;95029;;;-1.3;98.8
56558;BME280;43358;50.356;12.456;2023-01-20T06:13:47;95029;;;-1.4;98.8
56558;BME280;43358;50.356;12.456;2023-01-20T06:14:49;95028;;;-1.4;98.8
56558;BME280;43358;50.356;12.456;2023-01-20T06:15:51;95027;;;-1.4;98.8
56558;BME280;43358;50.356;12.456;2023-01-20T06:16:53;95029;;;-1.4;98.8
56558;BME280;43358;50.356;12.456;2023-01-20T06:17:55;95033;;;-1.4;98.8
56558;BME280;43358;50.356;12.456;2023-01-20T06:18:57;95031;;;-1.4;98.8
56558;BME280;43358;50.356;12.456;2023-01-20T06:19:59;95032;;;-1.5;98.8